sensor_id;sensor_type;location;lat;lon;timestamp;temperature;humidity
1355;DHT22;671;48.972;9.276;2023-08-06T00:01:22;16.90;99.90
1355;DHT22;671;48.972;9.276;2023-08-06T00:03:49;16.90;99.90
1355;DHT22;671;48.972;9.276;2023-08-06T00:06:15;16.90;99.90
1355;DHT22;671;48.972;9.276;2023-08-06T00:08:42;16.90;99.90
1355;DHT22;671;48.972;9.276;2023-08-06T00:11:08;16.90;99.90
1355;DHT22;671;48.972;9.276;2023-08-06T00:13:35;16.80;99.90
1355;DHT22;671;48.972;9.276;2023-08-06T00:16:12;16.80;99.90
1355;DHT22;671;48.972;9.276;2023-08-06T00:18:39;16.80;99.90
1355;DHT22;671;48.972;9.276;2023-08-06T00:21:06;16.80;99.90
1355;DHT22;671;48.972;9.276;2023-08-06T00:23:32;16.70;99.90
1355;DHT22;671;48.972;9.276;2023-08-06T00:25:59;16.70;99.90
1355;DHT22;671;48.972;9.276;2023-08-06T00:28:25;16.60;99.90
1355;DHT22;671;48.972;9.276;2023-08-06T00:30:56;16.60;99.90
1355;DHT22;671;48.972;9.276;2023-08-06T00:33:23;16.60;99.90
1355;DHT22;671;48.972;9.276;2023-08-06T00:35:50;16.50;99.90
1355;DHT22;671;48.972;9.276;2023-08-06T00:38:17;16.50;99.90
1355;DHT22;671;48.972;9.276;2023-08-06T00:40:43;16.50;99.90
1355;DHT22;671;48.972;9.276;2023-08-06T00:43:10;16.50;99.90
1355;DHT22;671;48.972;9.276;2023-08-06T00:45:37;16.50;99.90
1355;DHT22;671;48.972;9.276;2023-08-06T00:48:05;16.40;99.90
1355;DHT22;671;48.972;9.276;2023-08-06T00:50:32;16.40;99.90
1355;DHT22;671;48.972;9.276;2023-08-06T00:52:59;16.50;99.90
1355;DHT22;671;48.972;9.276;2023-08-06T00:55:26;16.50;99.90
1355;DHT22;671;48.972;9.276;2023-08-06T00:57:53;16.60;99.90
1355;DHT22;671;48.972;9.276;2023-08-06T01:00:22;16.60;99.90
1355;DHT22;671;48.972;9.276;2023-08-06T01:02:50;16.60;99.90
1355;DHT22;671;48.972;9.276;2023-08-06T01:05:16;16.60;99.90
1355;DHT22;671;48.972;9.276;2023-08-06T01:13:28;16.70;99.90
1355;DHT22;671;48.972;9.276;2023-08-06T01:15:58;16.70;99.90
1355;DHT22;671;48.972;9.276;2023-08-06T01:18:26;16.70;99.90
1355;DHT22;671;48.972;9.276;2023-08-06T01:20:52;16.70;99.90
1355;DHT22;671;48.972;9.276;2023-08-06T01:23:19;16.70;99.90
1355;DHT22;671;48.972;9.276;2023-08-06T01:29:19;16.70;99.90
1355;DHT22;671;48.972;9.276;2023-08-06T01:31:24;16.70;99.90
1355;DHT22;671;48.972;9.276;2023-08-06T01:33:53;16.60;99.90
1355;DHT22;671;48.972;9.276;2023-08-06T01:36:23;16.60;99.90
1355;DHT22;671;48.972;9.276;2023-08-06T01:38:52;16.60;99.90
1355;DHT22;671;48.972;9.276;2023-08-06T01:41:19;16.50;99.90
1355;DHT22;671;48.972;9.276;2023-08-06T01:43:45;16.40;99.90
1355;DHT22;671;48.972;9.276;2023-08-06T01:46:12;16.30;99.90
1355;DHT22;671;48.972;9.276;2023-08-06T01:48:38;16.30;99.90
1355;DHT22;671;48.972;9.276;2023-08-06T01:51:05;16.30;99.90
1355;DHT22;671;48.972;9.276;2023-08-06T01:53:33;16.30;99.90
1355;DHT22;671;48.972;9.276;2023-08-06T01:55:59;16.40;99.90
1355;DHT22;671;48.972;9.276;2023-08-06T01:58:26;16.40;99.90
1355;DHT22;671;48.972;9.276;2023-08-06T02:00:52;16.50;99.90
1355;DHT22;671;48.972;9.276;2023-08-06T02:03:19;16.50;99.90
1355;DHT22;671;48.972;9.276;2023-08-06T02:05:45;16.50;99.90
1355;DHT22;671;48.972;9.276;2023-08-06T02:08:12;16.40;99.90
1355;DHT22;671;48.972;9.276;2023-08-06T02:10:38;16.40;99.90
1355;DHT22;671;48.972;9.276;2023-08-06T02:13:05;16.40;99.90
1355;DHT22;671;48.972;9.276;2023-08-06T02:15:31;16.40;99.90
1355;DHT22;671;48.972;9.276;2023-08-06T02:17:58;16.40;99.90
1355;DHT22;671;48.972;9.276;2023-08-06T02:20:24;16.40;99.90
1355;DHT22;671;48.972;9.276;2023-08-06T02:22:51;16.30;99.90
1355;DHT22;671;48.972;9.276;2023-08-06T02:25:17;16.20;99.90
1355;DHT22;671;48.972;9.276;2023-08-06T02:27:44;16.10;99.90
1355;DHT22;671;48.972;9.276;2023-08-06T02:30:10;16.10;99.90
1355;DHT22;671;48.972;9.276;2023-08-06T02:32:37;16.10;99.90
1355;DHT22;671;48.972;9.276;2023-08-06T02:35:03;16.10;99.90
1355;DHT22;671;48.972;9.276;2023-08-06T02:37:32;16.10;99.90
1355;DHT22;671;48.972;9.276;2023-08-06T02:39:59;16.10;99.90
1355;DHT22;671;48.972;9.276;2023-08-06T02:42:25;16.10;99.90
1355;DHT22;671;48.972;9.276;2023-08-06T02:44:53;16.20;99.90
1355;DHT22;671;48.972;9.276;2023-08-06T02:47:21;16.20;99.90
1355;DHT22;671;48.972;9.276;2023-08-06T02:49:48;16.20;99.90
1355;DHT22;671;48.972;9.276;2023-08-06T02:52:14;16.30;99.90
1355;DHT22;671;48.972;9.276;2023-08-06T02:54:41;16.30;99.90
1355;DHT22;671;48.972;9.276;2023-08-06T02:57:07;16.40;99.90
1355;DHT22;671;48.972;9.276;2023-08-06T02:59:34;16.30;99.90
1355;DHT22;671;48.972;9.276;2023-08-06T03:02:00;16.30;99.90
1355;DHT22;671;48.972;9.276;2023-08-06T03:04:27;16.30;99.90
1355;DHT22;671;48.972;9.276;2023-08-06T03:06:53;16.20;99.90
1355;DHT22;671;48.972;9.276;2023-08-06T03:09:20;16.20;99.90
1355;DHT22;671;48.972;9.276;2023-08-06T03:11:46;16.20;99.90
1355;DHT22;671;48.972;9.276;2023-08-06T03:14:13;16.30;99.90
1355;DHT22;671;48.972;9.276;2023-08-06T03:16:39;16.30;99.90
1355;DHT22;671;48.972;9.276;2023-08-06T03:19:06;16.30;99.90
1355;DHT22;671;48.972;9.276;2023-08-06T03:21:32;16.30;99.90
1355;DHT22;671;48.972;9.276;2023-08-06T03:23:59;16.30;99.90
1355;DHT22;671;48.972;9.276;2023-08-06T03:26:25;16.30;99.90
1355;DHT22;671;48.972;9.276;2023-08-06T03:28:52;16.30;99.90
1355;DHT22;671;48.972;9.276;2023-08-06T03:31:18;16.30;99.90
1355;DHT22;671;48.972;9.276;2023-08-06T03:33:45;16.40;99.90
1355;DHT22;671;48.972;9.276;2023-08-06T03:36:11;16.30;99.90
1355;DHT22;671;48.972;9.276;2023-08-06T03:38:39;16.40;99.90
1355;DHT22;671;48.972;9.276;2023-08-06T03:41:05;16.40;99.90
1355;DHT22;671;48.972;9.276;2023-08-06T03:43:32;16.40;99.90
1355;DHT22;671;48.972;9.276;2023-08-06T03:45:58;16.40;99.90
1355;DHT22;671;48.972;9.276;2023-08-06T03:48:25;16.30;99.90
1355;DHT22;671;48.972;9.276;2023-08-06T03:50:51;16.30;99.90
1355;DHT22;671;48.972;9.276;2023-08-06T03:53:18;16.30;99.90
1355;DHT22;671;48.972;9.276;2023-08-06T03:55:44;16.30;99.90
1355;DHT22;671;48.972;9.276;2023-08-06T03:58:11;16.30;99.90
1355;DHT22;671;48.972;9.276;2023-08-06T04:00:37;16.30;99.90
1355;DHT22;671;48.972;9.276;2023-08-06T04:03:04;16.30;99.90
1355;DHT22;671;48.972;9.276;2023-08-06T04:05:33;16.30;99.90
1355;DHT22;671;48.972;9.276;2023-08-06T04:08:00;16.40;99.90
1355;DHT22;671;48.972;9.276;2023-08-06T04:10:26;16.40;99.90
1355;DHT22;671;48.972;9.276;2023-08-06T04:12:53;16.40;99.90
1355;DHT22;671;48.972;9.276;2023-08-06T04:15:19;16.50;99.90
1355;DHT22;671;48.972;9.276;2023-08-06T04:17:46;16.50;99.90
1355;DHT22;671;48.972;9.276;2023-08-06T04:20:12;16.50;99.90
1355;DHT22;671;48.972;9.276;2023-08-06T04:22:39;16.50;99.90
1355;DHT22;671;48.972;9.276;2023-08-06T04:25:05;16.50;99.90
1355;DHT22;671;48.972;9.276;2023-08-06T04:27:32;16.50;99.90
1355;DHT22;671;48.972;9.276;2023-08-06T04:29:58;16.50;99.90
1355;DHT22;671;48.972;9.276;2023-08-06T04:32:25;16.50;99.90
1355;DHT22;671;48.972;9.276;2023-08-06T04:34:52;16.50;99.90
1355;DHT22;671;48.972;9.276;2023-08-06T04:37:21;16.60;99.90
1355;DHT22;671;48.972;9.276;2023-08-06T04:39:48;16.60;99.90
1355;DHT22;671;48.972;9.276;2023-08-06T04:42:14;16.60;99.90
1355;DHT22;671;48.972;9.276;2023-08-06T04:44:41;16.60;99.90
1355;DHT22;671;48.972;9.276;2023-08-06T04:47:07;16.70;99.90
1355;DHT22;671;48.972;9.276;2023-08-06T04:49:34;16.70;99.90
1355;DHT22;671;48.972;9.276;2023-08-06T04:52:01;16.70;99.90
1355;DHT22;671;48.972;9.276;2023-08-06T04:54:27;16.70;99.90
1355;DHT22;671;48.972;9.276;2023-08-06T04:56:54;16.80;99.90
1355;DHT22;671;48.972;9.276;2023-08-06T04:59:20;16.80;99.90
1355;DHT22;671;48.972;9.276;2023-08-06T05:01:47;16.90;99.90
1355;DHT22;671;48.972;9.276;2023-08-06T05:04:13;16.90;99.90
1355;DHT22;671;48.972;9.276;2023-08-06T05:06:40;17.00;99.90
1355;DHT22;671;48.972;9.276;2023-08-06T05:09:07;17.00;99.90
1355;DHT22;671;48.972;9.276;2023-08-06T05:11:33;17.00;99.90
1355;DHT22;671;48.972;9.276;2023-08-06T05:14:00;17.00;99.90
1355;DHT22;671;48.972;9.276;2023-08-06T05:16:27;16.90;99.90
1355;DHT22;671;48.972;9.276;2023-08-06T05:18:54;16.90;99.90
1355;DHT22;671;48.972;9.276;2023-08-06T05:21:20;16.90;99.90
1355;DHT22;671;48.972;9.276;2023-08-06T05:23:47;16.90;99.90
1355;DHT22;671;48.972;9.276;2023-08-06T05:26:13;16.90;99.90
1355;DHT22;671;48.972;9.276;2023-08-06T05:28:44;17.00;99.90
1355;DHT22;671;48.972;9.276;2023-08-06T05:31:12;17.20;99.90
1355;DHT22;671;48.972;9.276;2023-08-06T05:33:39;17.10;99.90
1355;DHT22;671;48.972;9.276;2023-08-06T05:36:05;17.10;99.90
1355;DHT22;671;48.972;9.276;2023-08-06T05:38:32;17.10;99.90
1355;DHT22;671;48.972;9.276;2023-08-06T05:40:58;17.20;99.90
1355;DHT22;671;48.972;9.276;2023-08-06T05:43:24;17.20;99.90
1355;DHT22;671;48.972;9.276;2023-08-06T05:45:51;17.30;99.90
1355;DHT22;671;48.972;9.276;2023-08-06T05:48:18;17.30;99.90
1355;DHT22;671;48.972;9.276;2023-08-06T05:50:44;17.30;99.90
1355;DHT22;671;48.972;9.276;2023-08-06T05:53:11;17.40;99.90
1355;DHT22;671;48.972;9.276;2023-08-06T05:55:38;17.40;99.90
1355;DHT22;671;48.972;9.276;2023-08-06T05:58:05;17.30;99.90
1355;DHT22;671;48.972;9.276;2023-08-06T06:00:32;17.30;99.90
1355;DHT22;671;48.972;9.276;2023-08-06T06:02:58;17.20;99.90
1355;DHT22;671;48.972;9.276;2023-08-06T06:05:25;17.20;99.90
1355;DHT22;671;48.972;9.276;2023-08-06T06:07:51;17.10;99.90
1355;DHT22;671;48.972;9.276;2023-08-06T06:10:18;17.10;99.90
1355;DHT22;671;48.972;9.276;2023-08-06T06:12:44;17.10;99.90
1355;DHT22;671;48.972;9.276;2023-08-06T06:15:11;17.10;99.90
1355;DHT22;671;48.972;9.276;2023-08-06T06:17:37;17.10;99.90
1355;DHT22;671;48.972;9.276;2023-08-06T06:20:04;17.10;99.90
1355;DHT22;671;48.972;9.276;2023-08-06T06:22:31;17.20;99.90
1355;DHT22;671;48.972;9.276;2023-08-06T06:24:57;17.30;99.90
1355;DHT22;671;48.972;9.276;2023-08-06T06:27:24;17.30;99.90
1355;DHT22;671;48.972;9.276;2023-08-06T06:29:50;17.20;99.90
1355;DHT22;671;48.972;9.276;2023-08-06T06:32:18;17.30;99.90
1355;DHT22;671;48.972;9.276;2023-08-06T06:34:45;17.30;99.90
1355;DHT22;671;48.972;9.276;2023-08-06T06:37:11;17.30;99.90
1355;DHT22;671;48.972;9.276;2023-08-06T06:39:38;17.40;99.90
1355;DHT22;671;48.972;9.276;2023-08-06T06:42:05;17.40;99.90
1355;DHT22;671;48.972;9.276;2023-08-06T06:44:31;17.50;99.90
1355;DHT22;671;48.972;9.276;2023-08-06T06:46:58;17.60;99.90
1355;DHT22;671;48.972;9.276;2023-08-06T06:49:24;17.80;99.90
1355;DHT22;671;48.972;9.276;2023-08-06T06:51:51;17.90;99.90
1355;DHT22;671;48.972;9.276;2023-08-06T06:54:17;17.90;99.90
1355;DHT22;671;48.972;9.276;2023-08-06T06:56:44;17.80;99.90
1355;DHT22;671;48.972;9.276;2023-08-06T06:59:10;17.70;99.90
1355;DHT22;671;48.972;9.276;2023-08-06T07:01:37;17.70;99.90
1355;DHT22;671;48.972;9.276;2023-08-06T07:04:03;17.60;99.90
1355;DHT22;671;48.972;9.276;2023-08-06T07:06:31;17.50;99.90
1355;DHT22;671;48.972;9.276;2023-08-06T07:08:58;17.40;99.90
1355;DHT22;671;48.972;9.276;2023-08-06T07:11:24;17.40;99.90
1355;DHT22;671;48.972;9.276;2023-08-06T07:13:56;17.40;99.90
1355;DHT22;671;48.972;9.276;2023-08-06T07:16:25;17.50;99.90
1355;DHT22;671;48.972;9.276;2023-08-06T07:18:53;17.60;99.90
1355;DHT22;671;48.972;9.276;2023-08-06T07:21:19;17.60;99.90
1355;DHT22;671;48.972;9.276;2023-08-06T07:23:46;17.60;99.90
1355;DHT22;671;48.972;9.276;2023-08-06T07:26:13;17.60;99.90
1355;DHT22;671;48.972;9.276;2023-08-06T07:28:39;17.60;99.90
1355;DHT22;671;48.972;9.276;2023-08-06T07:31:06;17.50;99.90
1355;DHT22;671;48.972;9.276;2023-08-06T07:33:32;17.50;99.90
1355;DHT22;671;48.972;9.276;2023-08-06T07:35:59;17.50;99.90
1355;DHT22;671;48.972;9.276;2023-08-06T07:38:25;17.50;99.90
1355;DHT22;671;48.972;9.276;2023-08-06T07:40:52;17.40;99.90
1355;DHT22;671;48.972;9.276;2023-08-06T07:43:19;17.40;99.90
1355;DHT22;671;48.972;9.276;2023-08-06T07:45:45;17.30;99.90
1355;DHT22;671;48.972;9.276;2023-08-06T07:48:12;17.30;99.90
1355;DHT22;671;48.972;9.276;2023-08-06T07:50:38;17.30;99.90
1355;DHT22;671;48.972;9.276;2023-08-06T07:53:05;17.30;99.90
1355;DHT22;671;48.972;9.276;2023-08-06T07:55:31;17.30;99.90
1355;DHT22;671;48.972;9.276;2023-08-06T07:57:58;17.40;99.90
1355;DHT22;671;48.972;9.276;2023-08-06T08:00:24;17.20;99.90
1355;DHT22;671;48.972;9.276;2023-08-06T08:02:51;17.20;99.90
1355;DHT22;671;48.972;9.276;2023-08-06T08:05:17;17.10;99.90
1355;DHT22;671;48.972;9.276;2023-08-06T08:07:44;17.00;99.90
1355;DHT22;671;48.972;9.276;2023-08-06T08:10:10;17.00;99.90
1355;DHT22;671;48.972;9.276;2023-08-06T08:12:37;17.00;99.90
1355;DHT22;671;48.972;9.276;2023-08-06T08:15:04;17.00;99.90
1355;DHT22;671;48.972;9.276;2023-08-06T08:17:30;17.00;99.90
1355;DHT22;671;48.972;9.276;2023-08-06T08:19:57;17.00;99.90
1355;DHT22;671;48.972;9.276;2023-08-06T08:22:23;17.00;99.90
1355;DHT22;671;48.972;9.276;2023-08-06T08:24:50;17.00;99.90
1355;DHT22;671;48.972;9.276;2023-08-06T08:27:16;17.10;99.90
1355;DHT22;671;48.972;9.276;2023-08-06T08:29:43;17.30;99.90
1355;DHT22;671;48.972;9.276;2023-08-06T08:32:09;17.40;99.90
1355;DHT22;671;48.972;9.276;2023-08-06T08:34:36;17.70;99.90
1355;DHT22;671;48.972;9.276;2023-08-06T08:37:03;17.90;99.90
1355;DHT22;671;48.972;9.276;2023-08-06T08:39:30;18.00;99.90
1355;DHT22;671;48.972;9.276;2023-08-06T08:41:57;18.10;99.90
1355;DHT22;671;48.972;9.276;2023-08-06T08:44:23;18.10;99.90
1355;DHT22;671;48.972;9.276;2023-08-06T08:46:55;18.20;99.90
1355;DHT22;671;48.972;9.276;2023-08-06T08:49:23;18.20;99.90
1355;DHT22;671;48.972;9.276;2023-08-06T08:51:52;18.20;99.90
1355;DHT22;671;48.972;9.276;2023-08-06T08:54:20;18.30;99.90
1355;DHT22;671;48.972;9.276;2023-08-06T08:56:49;18.20;99.90
1355;DHT22;671;48.972;9.276;2023-08-06T08:59:16;18.20;99.90
1355;DHT22;671;48.972;9.276;2023-08-06T09:01:42;18.20;99.90
1355;DHT22;671;48.972;9.276;2023-08-06T09:04:12;18.30;99.90
1355;DHT22;671;48.972;9.276;2023-08-06T09:06:39;18.30;99.90
1355;DHT22;671;48.972;9.276;2023-08-06T09:09:18;18.20;99.90
1355;DHT22;671;48.972;9.276;2023-08-06T09:11:48;18.10;99.90
1355;DHT22;671;48.972;9.276;2023-08-06T09:14:16;18.00;99.90
1355;DHT22;671;48.972;9.276;2023-08-06T09:16:43;18.00;99.90
1355;DHT22;671;48.972;9.276;2023-08-06T09:19:13;17.90;99.90
1355;DHT22;671;48.972;9.276;2023-08-06T09:21:42;17.90;99.90
1355;DHT22;671;48.972;9.276;2023-08-06T09:24:10;17.90;99.90
1355;DHT22;671;48.972;9.276;2023-08-06T09:26:37;18.10;99.90
1355;DHT22;671;48.972;9.276;2023-08-06T09:29:05;18.10;99.90
1355;DHT22;671;48.972;9.276;2023-08-06T09:31:49;18.10;99.90
1355;DHT22;671;48.972;9.276;2023-08-06T09:34:22;18.10;99.90
1355;DHT22;671;48.972;9.276;2023-08-06T09:36:53;18.00;99.90
1355;DHT22;671;48.972;9.276;2023-08-06T09:39:25;18.00;99.90
1355;DHT22;671;48.972;9.276;2023-08-06T09:42:00;18.10;99.90
1355;DHT22;671;48.972;9.276;2023-08-06T09:44:30;18.00;99.90
1355;DHT22;671;48.972;9.276;2023-08-06T09:46:59;18.00;99.90
1355;DHT22;671;48.972;9.276;2023-08-06T09:51:54;18.00;99.90
1355;DHT22;671;48.972;9.276;2023-08-06T09:54:27;18.00;99.90
1355;DHT22;671;48.972;9.276;2023-08-06T09:56:54;18.00;99.90
1355;DHT22;671;48.972;9.276;2023-08-06T09:59:21;17.90;99.90
1355;DHT22;671;48.972;9.276;2023-08-06T10:01:48;17.80;99.90
1355;DHT22;671;48.972;9.276;2023-08-06T10:04:15;17.80;99.90
1355;DHT22;671;48.972;9.276;2023-08-06T10:06:47;17.80;99.90
1355;DHT22;671;48.972;9.276;2023-08-06T10:09:17;17.80;99.90
1355;DHT22;671;48.972;9.276;2023-08-06T10:11:49;17.80;99.90
1355;DHT22;671;48.972;9.276;2023-08-06T10:14:32;17.70;99.90
1355;DHT22;671;48.972;9.276;2023-08-06T10:16:59;17.60;99.90
1355;DHT22;671;48.972;9.276;2023-08-06T10:19:27;17.70;99.90
1355;DHT22;671;48.972;9.276;2023-08-06T10:22:14;17.70;99.90
1355;DHT22;671;48.972;9.276;2023-08-06T10:27:30;17.70;99.90
1355;DHT22;671;48.972;9.276;2023-08-06T10:30:32;17.60;99.90
1355;DHT22;671;48.972;9.276;2023-08-06T10:33:01;17.60;99.90
1355;DHT22;671;48.972;9.276;2023-08-06T10:35:29;17.60;99.90
1355;DHT22;671;48.972;9.276;2023-08-06T10:38:12;17.60;99.90
1355;DHT22;671;48.972;9.276;2023-08-06T10:40:40;17.70;99.90
1355;DHT22;671;48.972;9.276;2023-08-06T10:43:08;17.60;99.90
1355;DHT22;671;48.972;9.276;2023-08-06T10:45:37;17.50;99.90
1355;DHT22;671;48.972;9.276;2023-08-06T10:48:04;17.50;99.90
1355;DHT22;671;48.972;9.276;2023-08-06T10:50:31;17.50;99.90
1355;DHT22;671;48.972;9.276;2023-08-06T10:53:04;17.50;99.90
1355;DHT22;671;48.972;9.276;2023-08-06T10:55:32;17.50;99.90
1355;DHT22;671;48.972;9.276;2023-08-06T10:57:58;17.50;99.90
1355;DHT22;671;48.972;9.276;2023-08-06T11:00:25;17.40;99.90
1355;DHT22;671;48.972;9.276;2023-08-06T11:02:53;17.30;99.90
1355;DHT22;671;48.972;9.276;2023-08-06T11:05:20;17.30;99.90
1355;DHT22;671;48.972;9.276;2023-08-06T11:07:46;17.30;99.90
1355;DHT22;671;48.972;9.276;2023-08-06T11:10:15;17.40;99.90
1355;DHT22;671;48.972;9.276;2023-08-06T11:12:41;17.40;99.90
1355;DHT22;671;48.972;9.276;2023-08-06T11:15:08;17.40;99.90
1355;DHT22;671;48.972;9.276;2023-08-06T11:17:35;17.40;99.90
1355;DHT22;671;48.972;9.276;2023-08-06T11:20:04;17.50;99.90
1355;DHT22;671;48.972;9.276;2023-08-06T11:22:31;17.50;99.90
1355;DHT22;671;48.972;9.276;2023-08-06T11:24:58;17.40;99.90
1355;DHT22;671;48.972;9.276;2023-08-06T11:27:26;17.30;99.90
1355;DHT22;671;48.972;9.276;2023-08-06T11:29:53;17.40;99.90
1355;DHT22;671;48.972;9.276;2023-08-06T11:32:20;17.40;99.90
1355;DHT22;671;48.972;9.276;2023-08-06T11:34:46;17.40;99.90
1355;DHT22;671;48.972;9.276;2023-08-06T11:37:13;17.40;99.90
1355;DHT22;671;48.972;9.276;2023-08-06T11:39:46;17.40;99.90
1355;DHT22;671;48.972;9.276;2023-08-06T11:42:13;17.40;99.90
1355;DHT22;671;48.972;9.276;2023-08-06T11:44:41;17.30;99.90
1355;DHT22;671;48.972;9.276;2023-08-06T11:47:16;17.20;99.90
1355;DHT22;671;48.972;9.276;2023-08-06T11:49:47;17.10;99.90
1355;DHT22;671;48.972;9.276;2023-08-06T11:52:19;17.10;99.90
1355;DHT22;671;48.972;9.276;2023-08-06T11:55:05;17.00;99.90
1355;DHT22;671;48.972;9.276;2023-08-06T11:57:34;16.90;99.90
1355;DHT22;671;48.972;9.276;2023-08-06T12:00:05;16.90;99.90
1355;DHT22;671;48.972;9.276;2023-08-06T12:02:33;16.80;99.90
1355;DHT22;671;48.972;9.276;2023-08-06T12:05:15;16.70;99.90
1355;DHT22;671;48.972;9.276;2023-08-06T12:07:45;16.60;99.90
1355;DHT22;671;48.972;9.276;2023-08-06T12:10:13;16.60;99.90
1355;DHT22;671;48.972;9.276;2023-08-06T12:12:39;16.60;99.90
1355;DHT22;671;48.972;9.276;2023-08-06T12:15:06;16.60;99.90
1355;DHT22;671;48.972;9.276;2023-08-06T12:17:32;16.50;99.90
1355;DHT22;671;48.972;9.276;2023-08-06T12:19:59;16.40;99.90
1355;DHT22;671;48.972;9.276;2023-08-06T12:22:26;16.40;99.90
1355;DHT22;671;48.972;9.276;2023-08-06T12:24:53;16.30;99.90
1355;DHT22;671;48.972;9.276;2023-08-06T12:27:19;16.30;99.90
1355;DHT22;671;48.972;9.276;2023-08-06T12:29:48;16.20;99.90
1355;DHT22;671;48.972;9.276;2023-08-06T12:32:15;16.10;99.90
1355;DHT22;671;48.972;9.276;2023-08-06T12:34:42;16.20;99.90
1355;DHT22;671;48.972;9.276;2023-08-06T12:37:09;16.20;99.90
1355;DHT22;671;48.972;9.276;2023-08-06T12:39:36;16.10;99.90
1355;DHT22;671;48.972;9.276;2023-08-06T12:42:04;16.20;99.90
1355;DHT22;671;48.972;9.276;2023-08-06T12:44:32;16.20;99.90
1355;DHT22;671;48.972;9.276;2023-08-06T12:46:58;16.30;99.90
1355;DHT22;671;48.972;9.276;2023-08-06T12:49:25;16.30;99.90
1355;DHT22;671;48.972;9.276;2023-08-06T12:51:53;16.20;99.90
1355;DHT22;671;48.972;9.276;2023-08-06T12:54:20;16.30;99.90
1355;DHT22;671;48.972;9.276;2023-08-06T12:56:47;16.30;99.90
1355;DHT22;671;48.972;9.276;2023-08-06T12:59:15;16.30;99.90
1355;DHT22;671;48.972;9.276;2023-08-06T13:01:42;16.30;99.90
1355;DHT22;671;48.972;9.276;2023-08-06T13:04:10;16.40;99.90
1355;DHT22;671;48.972;9.276;2023-08-06T13:06:37;16.40;99.90
1355;DHT22;671;48.972;9.276;2023-08-06T13:09:09;16.50;99.90
1355;DHT22;671;48.972;9.276;2023-08-06T13:11:36;16.50;99.90
1355;DHT22;671;48.972;9.276;2023-08-06T13:14:05;16.70;99.90
1355;DHT22;671;48.972;9.276;2023-08-06T13:16:36;16.70;99.90
1355;DHT22;671;48.972;9.276;2023-08-06T13:19:04;16.80;99.90
1355;DHT22;671;48.972;9.276;2023-08-06T13:24:07;16.90;99.90
1355;DHT22;671;48.972;9.276;2023-08-06T13:26:33;17.00;99.90
1355;DHT22;671;48.972;9.276;2023-08-06T13:29:00;17.00;99.90
1355;DHT22;671;48.972;9.276;2023-08-06T13:31:28;17.10;99.90
1355;DHT22;671;48.972;9.276;2023-08-06T13:33:55;17.10;99.90
1355;DHT22;671;48.972;9.276;2023-08-06T13:36:25;17.00;99.90
1355;DHT22;671;48.972;9.276;2023-08-06T13:38:52;16.80;99.90
1355;DHT22;671;48.972;9.276;2023-08-06T13:41:19;16.80;99.90
1355;DHT22;671;48.972;9.276;2023-08-06T13:43:46;16.80;99.90
1355;DHT22;671;48.972;9.276;2023-08-06T13:46:13;16.80;99.90
1355;DHT22;671;48.972;9.276;2023-08-06T13:48:43;16.70;99.90
1355;DHT22;671;48.972;9.276;2023-08-06T13:51:10;16.80;99.90
1355;DHT22;671;48.972;9.276;2023-08-06T13:53:38;16.80;99.90
1355;DHT22;671;48.972;9.276;2023-08-06T13:56:06;17.00;99.90
1355;DHT22;671;48.972;9.276;2023-08-06T13:58:33;17.10;99.90
1355;DHT22;671;48.972;9.276;2023-08-06T14:00:59;17.20;99.90
1355;DHT22;671;48.972;9.276;2023-08-06T14:03:26;17.40;99.90
1355;DHT22;671;48.972;9.276;2023-08-06T14:05:53;17.50;99.90
1355;DHT22;671;48.972;9.276;2023-08-06T14:08:23;17.60;99.90
1355;DHT22;671;48.972;9.276;2023-08-06T14:10:50;17.50;99.90
1355;DHT22;671;48.972;9.276;2023-08-06T14:13:17;17.50;99.90
1355;DHT22;671;48.972;9.276;2023-08-06T14:15:44;17.50;99.90
1355;DHT22;671;48.972;9.276;2023-08-06T14:18:16;17.60;99.90
1355;DHT22;671;48.972;9.276;2023-08-06T14:20:43;17.70;99.90
1355;DHT22;671;48.972;9.276;2023-08-06T14:23:10;17.70;99.90
1355;DHT22;671;48.972;9.276;2023-08-06T14:25:39;17.70;99.90
1355;DHT22;671;48.972;9.276;2023-08-06T14:28:06;17.60;99.90
1355;DHT22;671;48.972;9.276;2023-08-06T14:30:33;17.70;99.90
1355;DHT22;671;48.972;9.276;2023-08-06T14:33:00;17.70;99.90
1355;DHT22;671;48.972;9.276;2023-08-06T14:35:27;17.70;99.90
1355;DHT22;671;48.972;9.276;2023-08-06T14:37:54;17.70;99.90
1355;DHT22;671;48.972;9.276;2023-08-06T14:40:20;17.80;99.90
1355;DHT22;671;48.972;9.276;2023-08-06T14:42:47;17.80;99.90
1355;DHT22;671;48.972;9.276;2023-08-06T14:45:13;17.80;99.90
1355;DHT22;671;48.972;9.276;2023-08-06T14:47:40;17.60;99.90
1355;DHT22;671;48.972;9.276;2023-08-06T14:50:07;17.60;99.90
1355;DHT22;671;48.972;9.276;2023-08-06T14:52:33;17.40;99.90
1355;DHT22;671;48.972;9.276;2023-08-06T14:55:00;17.30;99.90
1355;DHT22;671;48.972;9.276;2023-08-06T14:57:28;17.10;99.90
1355;DHT22;671;48.972;9.276;2023-08-06T14:59:55;16.90;99.90
1355;DHT22;671;48.972;9.276;2023-08-06T15:02:22;16.90;99.90
1355;DHT22;671;48.972;9.276;2023-08-06T15:04:48;16.90;99.90
1355;DHT22;671;48.972;9.276;2023-08-06T15:07:16;16.90;99.90
1355;DHT22;671;48.972;9.276;2023-08-06T15:09:43;17.00;99.90
1355;DHT22;671;48.972;9.276;2023-08-06T15:12:09;17.10;99.90
1355;DHT22;671;48.972;9.276;2023-08-06T15:14:36;17.10;99.90
1355;DHT22;671;48.972;9.276;2023-08-06T15:17:02;17.10;99.90
1355;DHT22;671;48.972;9.276;2023-08-06T15:19:29;17.10;99.90
1355;DHT22;671;48.972;9.276;2023-08-06T15:21:55;17.20;99.90
1355;DHT22;671;48.972;9.276;2023-08-06T15:24:22;17.20;99.90
1355;DHT22;671;48.972;9.276;2023-08-06T15:26:48;17.20;99.90
1355;DHT22;671;48.972;9.276;2023-08-06T15:29:15;17.20;99.90
1355;DHT22;671;48.972;9.276;2023-08-06T15:31:41;17.20;99.90
1355;DHT22;671;48.972;9.276;2023-08-06T15:34:08;17.20;99.90
1355;DHT22;671;48.972;9.276;2023-08-06T15:36:34;17.10;99.90
1355;DHT22;671;48.972;9.276;2023-08-06T15:39:02;17.00;99.90
1355;DHT22;671;48.972;9.276;2023-08-06T15:41:30;17.00;99.90
1355;DHT22;671;48.972;9.276;2023-08-06T15:43:57;16.90;99.90
1355;DHT22;671;48.972;9.276;2023-08-06T15:46:23;16.90;99.90
1355;DHT22;671;48.972;9.276;2023-08-06T15:48:50;16.80;99.90
1355;DHT22;671;48.972;9.276;2023-08-06T15:51:16;16.70;99.90
1355;DHT22;671;48.972;9.276;2023-08-06T15:53:43;16.70;99.90
1355;DHT22;671;48.972;9.276;2023-08-06T15:56:09;16.70;99.90
1355;DHT22;671;48.972;9.276;2023-08-06T15:58:36;16.60;99.90
1355;DHT22;671;48.972;9.276;2023-08-06T16:01:02;16.60;99.90
1355;DHT22;671;48.972;9.276;2023-08-06T16:03:30;16.50;99.90
1355;DHT22;671;48.972;9.276;2023-08-06T16:05:57;16.40;99.90
1355;DHT22;671;48.972;9.276;2023-08-06T16:08:23;16.40;99.90
1355;DHT22;671;48.972;9.276;2023-08-06T16:10:50;16.40;99.90
1355;DHT22;671;48.972;9.276;2023-08-06T16:13:17;16.50;99.90
1355;DHT22;671;48.972;9.276;2023-08-06T16:15:44;16.50;99.90
1355;DHT22;671;48.972;9.276;2023-08-06T16:18:10;16.50;99.90
1355;DHT22;671;48.972;9.276;2023-08-06T16:20:44;16.50;99.90
1355;DHT22;671;48.972;9.276;2023-08-06T16:23:11;16.60;99.90
1355;DHT22;671;48.972;9.276;2023-08-06T16:25:38;16.60;99.90
1355;DHT22;671;48.972;9.276;2023-08-06T16:28:05;16.40;99.90
1355;DHT22;671;48.972;9.276;2023-08-06T16:30:31;16.30;99.90
1355;DHT22;671;48.972;9.276;2023-08-06T16:32:58;16.20;99.90
1355;DHT22;671;48.972;9.276;2023-08-06T16:35:27;16.10;99.90